This is the latest recevied weather packets stored in our database for station/object N3TCR-13. If no packets are shown the sender has not sent any weather packets the latest 10 day(s).
| Time | Temp. | Humidity | Pressure | Rain* | Wind** | Luminosity | Snow |
|---|---|---|---|---|---|---|---|
| 1778020217 | 26.11° C | 19% | 993.2 hPa | 0 mm | - | - | - |
| 1778016617 | 27.22° C | 17% | 993.1 hPa | 0 mm | - | - | - |
| 1778014817 | 27.78° C | 15% | 993 hPa | 0 mm | - | - | - |
| 1778013017 | 27.78° C | 17% | 993 hPa | 0 mm | - | - | - |
| 1778008557 | 28.33° C | 19% | 993.8 hPa | 0 mm | - | - | - |
| 1778006717 | 27.78° C | 20% | 994.1 hPa | 0 mm | - | - | - |
| 1778005837 | 27.78° C | 19% | 994.3 hPa | 0 mm | - | - | - |
| 1777982418 | 17.22° C | 65% | 996.7 hPa | 0 mm | - | - | - |
| 1777969823 | 15.56° C | 78% | 995.3 hPa | 0 mm | - | - | - |
| 1777950917 | 17.78° C | 50% | 995 hPa | 0 mm | - | - | - |
| 1777949117 | 18.33° C | 48% | 995 hPa | 0 mm | - | - | - |
| 1777948218 | 18.89° C | 47% | 994.9 hPa | 0 mm | - | - | - |
| 1777947317 | 18.89° C | 46% | 994.7 hPa | 0 mm | - | - | - |
| 1777946417 | 19.44° C | 44% | 994.6 hPa | 0 mm | - | - | - |
| 1777943717 | 20° C | 40% | 994.1 hPa | 0 mm | - | - | - |
| 1777941917 | 20.56° C | 37% | 993.8 hPa | 0 mm | - | - | - |
| 1777940119 | 21.11° C | 35% | 993.6 hPa | 0 mm | - | - | - |
| 1777934717 | 22.78° C | 28% | 993.3 hPa | 0 mm | - | - | - |
| 1777931117 | 23.33° C | 27% | 993.3 hPa | 0 mm | - | - | - |
| 1777924837 | 23.89° C | 28% | 994.1 hPa | 0 mm | - | - | - |
| 1777921217 | 23.33° C | 29% | 995.1 hPa | 0 mm | - | - | - |
| 1777918537 | 22.78° C | 30% | 995.7 hPa | 0 mm | - | - | - |
| 1777915817 | 22.22° C | 31% | 996.1 hPa | 0 mm | - | - | - |
| 1777909520 | 20.56° C | 34% | 997.2 hPa | 0 mm | - | - | - |
| 1777908618 | 20.56° C | 33% | 997.3 hPa | 0 mm | - | - | - |
* Rain latest hour (hover to see other rain measurements)
** Current wind speed in m/s (hover to see current wind gust speed)